Home PIREPS Pireps

Flight BEL9990EV

  • Submitted By: AndrĂ© Vincent
  • Departure Airport: Bruxelles National (EBBR)
  • Arrival Airport: Riga West (EVRA)
  • Aircraft: YOUR CHOICE (YC)
  • Flight Time: 02.09
  • Date Submitted: 10/12/2015
  • Status: Accepted
Flight Details
Gross Revenue:
(20 load / € 0.00 per unit
€ 0.00
Fuel Cost:
(11189 fuel used @ 5.1 / unit)
€ 57,063.90

Additional Log Information:

View Log

Aircraft Used in flight is Boeing 737-800 sabena paint
18:28Flaps 2 Selected at 190ft and 0kts
18:28 Engine 1 Started
18:28 Engine 2 Started
18:28 Strobe Lights ON at 190 AGL
18:28 Navigation Lights ON at 190 AGL
18:28 Taxi Lights ON at 190 AGL
18:28 Beacon Lights ON at 190 AGL
18:28 Brakes are On
18:30 Brakes are Released
18:33 You Took off @ 199 Knots and Flaps at Position 2
Departure Weather
EBBR 101720Z 19015KT CAVOK 04/01 Q1027 NOSIGrn
18:33 Landing Gear Up @ 205 Knots and 240 Feet
18:33Flaps 1 Selected at 1090ft and 210kts
18:33Flaps Retracted at 1140ft and 212kts
18:36 Above FL100 you need to switch of the landing lights
18:44 You exceeded maximum bank angle
20:19 Below 10000 feet you are not allowed to go over 250 knots
20:19 Spoilers Armed
20:20Flaps 1 Selected at 8020ft and 260kts
20:20Flaps 2 Selected at 7980ft and 260kts
20:20Flaps 3 Selected at 7920ft and 259kts
20:23Flaps 4 Selected at 2990ft and 189kts
20:24Flaps 5 Selected at 2990ft and 180kts
20:28Flaps 6 Selected at 2490ft and 150kts
20:28 Landing Gear Down @ 149 Knots and 2490 Feet
20:29Flaps 7 Selected at 2490ft and 144kts
20:29Flaps 8 Selected at 2500ft and 143kts
20:33 You Landed @ 125 Knots and with -400 Vertical Speed
Arrival Weather
EVRA 101920Z 22009KT 180V250 9999 SCT019 OVC026 08/04 Q1019 R18/190095 NOSIGrn
20:33 Spoilers Disarmed
20:33Flaps Retracted at 40ft and 48kts
20:37 Brakes are On
20:37 Engine 1 Stoped
20:37 Engine 2 Stoped
20:37 Strobe Lights OFF at 40 AGL
20:37 Navigation Lights OFF at 40 AGL
20:37 Taxi Lights OFF at 40 AGL
20:37 Beacon Lights OFF at 40 AGL
20:37 Brussels Bel-Track1.0.0.11

Route Map

Corporate About Us Our Team Vacancies Information Fleet Route Network Rules and Regulations Operations Flight Schedules Event Center Tours Partners IVAO Vatsim Acars dev FSCB

fb Users Online No pilots online!
0 Pilot(s) and 88 Guest(s) Online
CMS by phpVMS - Design by Crazycreatives.com - Copyright © 2018 - Brussels Airlines Virtual